KOPF

Miami-Opa Locka Executive Airport

Miami, Florida, USA
METAR KOPF 182053Z 13010KT 10SM FEW029 32/22 A3007 RMK AO2 LTG DSNT W SLP183 T03220222 55012
Observed Flight Rules
Aug-18 @ 20:53 UTC (an hour ago) Visual Flight Rules
Wind Visibility Clouds
130° at 10 knots 10 miles
  • Few at 2,900' AGL
Temperatures Readings
Current 32°C / 90°F
Dewpoint 22°C / 72°F
Humidity 55%
Altimeter 30.07" Hg
Pressure 1018.3 hPa
Elevation 16
METAR KOPF 182053Z 13010KT 10SM FEW029 32/22 A3007 RMK AO2 LTG DSNT W SLP183 T03220222 55012
Observed Flight Rules
Aug-18 @ 20:53 UTC
(an hour ago)
VFR
Wind Visibility
130° at 10 knots 10 miles
Clouds
  • Few at 2,900' AGL
Temperature Dewpoint
32°C / 90°F 22°C / 72°F
Humidity Altimeter Pressure
55% 30.07" Hg 1018.3 hPa